createdAt,value
2022-12-05T00:02:21.359Z,93.93
2022-12-05T00:09:44.747Z,93.76
2022-12-05T00:13:32.244Z,93.81
2022-12-05T00:16:37.367Z,93.94
2022-12-05T00:20:09.121Z,93.82
2022-12-05T00:23:05.110Z,93.68
2022-12-05T00:26:06.928Z,94.03
2022-12-05T00:29:16.681Z,93.64
2022-12-05T00:35:29.453Z,94.01
2022-12-05T00:44:56.953Z,93.86
2022-12-05T00:47:40.286Z,94.00
2022-12-05T00:50:17.005Z,93.74
2022-12-05T00:53:06.162Z,94.00
2022-12-05T00:56:28.154Z,93.89
2022-12-05T00:59:32.410Z,93.80
2022-12-05T01:02:21.839Z,93.63
2022-12-05T01:05:04.531Z,93.94
2022-12-05T01:07:53.065Z,93.81
2022-12-05T01:10:55.355Z,93.96
2022-12-05T01:13:36.715Z,93.73
2022-12-05T01:16:14.443Z,93.62
2022-12-05T01:18:41.494Z,93.90
2022-12-05T01:21:40.781Z,93.69
2022-12-05T01:24:43.289Z,93.63
2022-12-05T01:27:27.436Z,93.85
2022-12-05T01:29:58.843Z,93.72
2022-12-05T01:32:26.578Z,93.99
2022-12-05T01:34:54.792Z,93.72
2022-12-05T01:37:22.579Z,93.83
2022-12-05T01:39:52.474Z,94.03
2022-12-05T01:42:23.238Z,93.89
2022-12-05T01:45:05.921Z,94.00
2022-12-05T01:47:40.218Z,93.78
2022-12-05T01:50:10.134Z,93.77
2022-12-05T01:52:42.343Z,93.69
2022-12-05T01:55:13.490Z,93.70
2022-12-05T01:58:01.351Z,93.77
2022-12-05T02:00:37.340Z,93.83
2022-12-05T02:03:20.955Z,93.70
2022-12-05T02:06:01.999Z,93.55
2022-12-05T02:13:19.642Z,93.87
2022-12-05T02:16:51.682Z,93.89
2022-12-05T02:23:49.560Z,94.00
2022-12-05T02:27:42.781Z,93.92
2022-12-05T02:30:39.150Z,93.74
2022-12-05T02:33:24.206Z,93.84
2022-12-05T02:36:10.564Z,94.14
2022-12-05T02:39:40.879Z,93.64
2022-12-05T02:42:43.607Z,93.88
2022-12-05T02:45:22.911Z,93.85
2022-12-05T02:48:06.595Z,93.97
2022-12-05T02:51:37.778Z,93.76
2022-12-05T02:54:04.201Z,93.83
2022-12-05T02:57:01.585Z,93.93
2022-12-05T02:59:39.749Z,93.82
2022-12-05T03:02:28.882Z,93.87
2022-12-05T03:05:33.290Z,93.71
2022-12-05T03:08:14.814Z,93.85
2022-12-05T03:10:54.603Z,93.97
2022-12-05T03:13:52.730Z,94.01
2022-12-05T03:16:27.421Z,93.91
2022-12-05T03:19:07.451Z,93.76
2022-12-05T03:21:42.421Z,93.88
2022-12-05T03:24:21.554Z,94.02
2022-12-05T03:27:17.072Z,94.17
2022-12-05T03:30:06.551Z,94.02
2022-12-05T03:33:26.599Z,93.93
2022-12-05T03:36:26.848Z,93.77
2022-12-05T03:39:20.434Z,94.04
2022-12-05T03:42:34.234Z,94.22
2022-12-05T03:45:22.440Z,94.04
2022-12-05T03:48:28.880Z,93.90
2022-12-05T03:51:27.887Z,94.06
2022-12-05T03:55:12.461Z,93.94
2022-12-05T03:59:33.685Z,94.00
2022-12-05T04:02:24.636Z,93.86
2022-12-05T04:05:12.652Z,94.05
2022-12-05T04:08:04.379Z,94.18
2022-12-05T04:10:50.216Z,93.97
2022-12-05T04:13:21.963Z,93.91
2022-12-05T04:16:22.231Z,93.99
2022-12-05T04:19:19.665Z,93.95
2022-12-05T04:21:52.880Z,93.86
2022-12-05T04:24:42.812Z,93.66
2022-12-05T04:27:40.831Z,93.88
2022-12-05T04:30:13.482Z,94.13
2022-12-05T04:33:00.349Z,93.90
2022-12-05T04:36:00.987Z,94.11
2022-12-05T04:38:50.283Z,94.02
2022-12-05T04:41:26.552Z,93.92
2022-12-05T04:43:54.559Z,93.82
2022-12-05T04:46:22.495Z,94.12
2022-12-05T04:48:53.007Z,93.76
2022-12-05T04:51:21.206Z,93.85
2022-12-05T04:53:52.430Z,93.78
2022-12-05T04:56:19.657Z,93.73
2022-12-05T04:58:46.411Z,93.73
2022-12-05T05:01:31.102Z,93.84
2022-12-05T05:04:13.413Z,93.70
2022-12-05T05:06:43.935Z,93.89
2022-12-05T05:09:17.040Z,93.78
2022-12-05T05:11:44.354Z,93.72
2022-12-05T05:14:11.838Z,93.83
2022-12-05T05:16:41.432Z,93.74
2022-12-05T05:19:12.401Z,93.64
2022-12-05T05:21:49.747Z,93.57
2022-12-05T05:24:26.058Z,93.44
2022-12-05T05:26:57.254Z,93.68
2022-12-05T05:29:30.452Z,93.57
2022-12-05T05:31:57.622Z,93.45
2022-12-05T05:34:31.993Z,93.55
2022-12-05T05:36:59.233Z,93.18
2022-12-05T05:39:36.948Z,93.62
2022-12-05T05:42:08.270Z,93.21
2022-12-05T05:44:35.506Z,93.09
2022-12-05T05:47:05.792Z,93.42
2022-12-05T05:49:33.496Z,93.51
2022-12-05T05:52:03.474Z,93.00
2022-12-05T05:54:33.455Z,93.15
2022-12-05T05:57:06.917Z,93.20
2022-12-05T05:59:39.755Z,93.37
2022-12-05T06:02:13.540Z,93.17
2022-12-05T06:04:40.532Z,93.21
2022-12-05T06:07:07.531Z,93.33
2022-12-05T06:09:38.979Z,93.10
2022-12-05T06:12:09.323Z,93.02
2022-12-05T06:14:44.084Z,92.81
2022-12-05T06:17:57.319Z,93.14
2022-12-05T06:20:34.696Z,93.03
2022-12-05T06:23:25.614Z,93.10
2022-12-05T06:26:02.176Z,93.02
2022-12-05T06:28:32.415Z,93.13
2022-12-05T06:31:28.035Z,93.09
2022-12-05T06:37:16.188Z,92.90
2022-12-05T06:39:58.837Z,92.96
2022-12-05T06:42:33.663Z,92.94
2022-12-05T06:45:16.886Z,92.83
2022-12-05T06:48:07.800Z,92.86
2022-12-05T06:51:11.363Z,92.89
2022-12-05T06:54:25.690Z,92.94
2022-12-05T06:57:31.995Z,92.79
2022-12-05T07:00:26.172Z,92.89
2022-12-05T07:02:56.517Z,92.77
2022-12-05T07:05:36.837Z,92.51
2022-12-05T07:08:07.416Z,92.78
2022-12-05T07:10:46.534Z,92.80
2022-12-05T07:13:20.775Z,92.74
2022-12-05T07:15:53.731Z,92.63
2022-12-05T07:18:24.353Z,92.70
2022-12-05T07:21:15.162Z,92.89
2022-12-05T07:23:54.690Z,92.81
2022-12-05T07:26:25.847Z,92.63
2022-12-05T07:28:59.070Z,92.64
2022-12-05T07:31:31.854Z,92.56
2022-12-05T07:34:03.960Z,92.66
2022-12-05T07:36:40.367Z,92.73
2022-12-05T07:39:13.392Z,92.81
2022-12-05T07:44:29.908Z,92.55
2022-12-05T07:46:57.858Z,92.47
2022-12-05T07:49:25.078Z,92.40
2022-12-05T07:51:54.465Z,92.53
2022-12-05T08:04:16.189Z,92.27
2022-12-05T08:11:10.778Z,92.74
2022-12-05T08:17:37.960Z,92.70
2022-12-05T08:25:06.446Z,92.48
2022-12-05T08:28:18.423Z,92.42
2022-12-05T08:30:54.258Z,92.51
2022-12-05T08:33:23.672Z,92.89
2022-12-05T08:35:50.350Z,92.49
2022-12-05T08:38:17.032Z,92.81
2022-12-05T08:40:43.715Z,92.67
2022-12-05T08:43:10.392Z,92.84
2022-12-05T08:45:37.077Z,92.62
2022-12-05T08:48:03.840Z,92.55
2022-12-05T08:50:30.884Z,92.57
2022-12-05T08:52:57.650Z,92.59
2022-12-05T08:55:24.358Z,92.63
2022-12-05T08:57:51.037Z,92.63
2022-12-05T09:00:18.196Z,92.58
2022-12-05T09:02:44.940Z,92.45
2022-12-05T09:05:27.099Z,92.57
2022-12-05T09:07:55.323Z,92.19
2022-12-05T09:10:22.385Z,92.71
2022-12-05T09:12:51.160Z,92.31
2022-12-05T09:15:18.259Z,92.54
2022-12-05T09:17:45.816Z,92.51
2022-12-05T09:20:14.043Z,92.46
2022-12-05T09:22:41.523Z,92.15
2022-12-05T09:25:09.180Z,92.54
2022-12-05T09:27:35.972Z,92.41
2022-12-05T09:30:03.402Z,92.33
2022-12-05T09:32:30.292Z,92.22
2022-12-05T09:34:57.208Z,92.39
2022-12-05T09:37:38.654Z,92.29
2022-12-05T09:40:06.817Z,92.34
2022-12-05T09:43:06.143Z,92.32
2022-12-05T09:45:36.264Z,92.47
2022-12-05T09:48:14.641Z,92.37
2022-12-05T09:50:45.396Z,92.09
2022-12-05T09:53:23.753Z,92.20
2022-12-05T09:55:59.531Z,92.15
2022-12-05T09:58:57.383Z,92.46
2022-12-05T10:01:28.281Z,92.45
2022-12-05T10:04:06.593Z,92.42
2022-12-05T10:06:41.336Z,92.51
2022-12-05T10:09:25.864Z,92.15
2022-12-05T10:12:06.529Z,92.29
2022-12-05T10:14:51.631Z,92.35
2022-12-05T10:17:27.384Z,92.20
2022-12-05T10:19:56.789Z,92.40
2022-12-05T10:22:29.066Z,92.49
2022-12-05T10:24:59.894Z,92.37
2022-12-05T10:27:40.211Z,92.22
2022-12-05T10:30:07.964Z,92.23
2022-12-05T10:32:48.299Z,92.24
2022-12-05T10:35:27.009Z,92.23
2022-12-05T10:38:18.756Z,91.85
2022-12-05T10:40:49.703Z,91.88
2022-12-05T10:43:23.717Z,92.01
2022-12-05T10:45:50.412Z,91.78
2022-12-05T10:48:20.476Z,91.89
2022-12-05T10:50:50.392Z,92.01
2022-12-05T10:53:24.651Z,92.00
2022-12-05T10:56:28.114Z,92.17
2022-12-05T10:58:38.315Z,91.83
2022-12-05T11:01:10.812Z,91.99
2022-12-05T11:03:39.834Z,91.93
2022-12-05T11:06:21.531Z,91.88
2022-12-05T11:09:04.274Z,91.84
2022-12-05T11:11:35.630Z,91.80
2022-12-05T11:14:09.819Z,91.82
2022-12-05T11:16:38.632Z,92.04
2022-12-05T11:19:24.359Z,91.81
2022-12-05T11:21:52.159Z,91.81
2022-12-05T11:24:43.339Z,91.59
2022-12-05T11:27:16.008Z,91.56
2022-12-05T11:30:03.963Z,91.68
2022-12-05T11:32:33.480Z,91.94
2022-12-05T11:35:25.135Z,91.51
2022-12-05T11:37:59.210Z,91.73
2022-12-05T11:40:47.846Z,91.34
2022-12-05T11:43:23.600Z,91.48
2022-12-05T11:46:12.799Z,91.96
2022-12-05T11:48:56.412Z,91.71
2022-12-05T11:51:35.180Z,91.87
2022-12-05T11:55:04.404Z,91.42
2022-12-05T11:57:56.242Z,91.44
2022-12-05T12:00:41.648Z,91.50
2022-12-05T12:03:14.344Z,91.51
2022-12-05T12:06:05.375Z,91.52
2022-12-05T12:08:45.682Z,91.50
2022-12-05T12:11:32.806Z,91.60
2022-12-05T12:14:20.617Z,91.37
2022-12-05T12:17:01.982Z,91.77
2022-12-05T12:19:43.435Z,91.60
2022-12-05T12:22:45.638Z,91.29
2022-12-05T12:25:43.421Z,91.51
2022-12-05T12:28:40.621Z,91.37
2022-12-05T12:31:13.281Z,91.49
2022-12-05T12:33:58.197Z,91.59
2022-12-05T12:36:27.339Z,91.39
2022-12-05T12:39:22.027Z,91.50
2022-12-05T12:42:24.240Z,91.30
2022-12-05T12:45:02.944Z,91.43
2022-12-05T12:47:45.509Z,91.58
2022-12-05T12:50:21.044Z,91.53
2022-12-05T12:52:47.696Z,91.38
2022-12-05T12:55:45.257Z,91.34
2022-12-05T12:58:52.003Z,91.52
2022-12-05T13:01:40.285Z,91.19
2022-12-05T13:04:14.900Z,91.19
2022-12-05T13:06:56.558Z,91.02
2022-12-05T13:09:29.396Z,91.26
2022-12-05T13:12:00.959Z,91.03
2022-12-05T13:14:29.178Z,91.50
2022-12-05T13:16:57.298Z,91.18
2022-12-05T13:19:26.936Z,91.30
2022-12-05T13:21:57.203Z,91.16
2022-12-05T13:24:27.380Z,91.12
2022-12-05T13:26:59.035Z,90.91
2022-12-05T13:29:34.516Z,91.21
2022-12-05T13:32:03.633Z,91.21
2022-12-05T13:34:39.745Z,91.18
2022-12-05T13:37:30.635Z,91.20
2022-12-05T13:40:16.110Z,90.94
2022-12-05T13:42:43.254Z,91.07
2022-12-05T13:45:16.232Z,91.19
2022-12-05T13:47:59.298Z,91.12
2022-12-05T13:50:55.366Z,91.24
2022-12-05T13:53:37.664Z,90.94
2022-12-05T13:56:23.860Z,90.84
2022-12-05T13:58:58.115Z,91.13
2022-12-05T14:01:24.942Z,90.94
2022-12-05T14:03:51.709Z,91.24
2022-12-05T14:06:39.425Z,90.76
2022-12-05T14:09:18.918Z,90.95
2022-12-05T14:12:10.778Z,90.99
2022-12-05T14:14:55.491Z,90.88
2022-12-05T14:17:32.924Z,91.12
2022-12-05T14:20:08.851Z,90.91
2022-12-05T14:23:00.003Z,90.88
2022-12-05T14:25:55.950Z,90.84
2022-12-05T14:28:36.983Z,90.85
2022-12-05T14:31:25.367Z,91.04
2022-12-05T14:34:15.475Z,90.90
2022-12-05T14:36:57.713Z,90.88
2022-12-05T14:39:38.432Z,90.94
2022-12-05T14:42:26.961Z,90.75
2022-12-05T14:44:56.536Z,90.65
2022-12-05T14:47:26.194Z,90.91
2022-12-05T14:50:12.666Z,90.89
2022-12-05T14:52:41.230Z,90.62
2022-12-05T14:55:18.638Z,91.01
2022-12-05T14:57:49.237Z,90.72
2022-12-05T15:00:22.985Z,90.59
2022-12-05T15:02:52.105Z,91.03
2022-12-05T15:05:31.909Z,90.80
2022-12-05T15:07:59.996Z,90.93
2022-12-05T15:10:33.596Z,90.54
2022-12-05T15:13:04.112Z,90.85
2022-12-05T15:15:42.965Z,90.82
2022-12-05T15:18:24.359Z,90.70
2022-12-05T15:20:53.098Z,90.64
2022-12-05T15:23:39.970Z,90.69
2022-12-05T15:26:45.431Z,90.63
2022-12-05T15:29:08.903Z,90.56
2022-12-05T15:31:36.992Z,90.72
2022-12-05T15:34:32.897Z,90.68
2022-12-05T15:37:31.010Z,90.83
2022-12-05T15:40:00.539Z,90.69
2022-12-05T15:42:30.926Z,90.38
2022-12-05T15:45:12.086Z,90.94
2022-12-05T15:47:39.825Z,90.63
2022-12-05T15:50:12.195Z,90.65
2022-12-05T15:52:46.315Z,90.61
2022-12-05T15:55:16.201Z,90.50
2022-12-05T15:57:55.259Z,90.76
2022-12-05T16:00:22.367Z,90.77
2022-12-05T16:03:05.205Z,90.84
2022-12-05T16:05:39.966Z,90.49
2022-12-05T16:08:08.454Z,90.63
2022-12-05T16:10:36.229Z,90.69
2022-12-05T16:13:06.376Z,90.97
2022-12-05T16:15:33.843Z,90.55
2022-12-05T16:18:02.687Z,90.83
2022-12-05T16:20:32.560Z,90.70
2022-12-05T16:23:25.572Z,90.71
2022-12-05T16:25:52.389Z,90.64
2022-12-05T16:28:21.173Z,90.84
2022-12-05T16:31:02.004Z,91.00
2022-12-05T16:33:29.385Z,90.81
2022-12-05T16:35:56.234Z,90.93
2022-12-05T16:38:25.984Z,91.08
2022-12-05T16:41:07.210Z,90.80
2022-12-05T16:43:33.893Z,91.25
2022-12-05T16:46:15.652Z,91.23
2022-12-05T16:48:50.514Z,91.19
2022-12-05T16:51:25.538Z,90.96
2022-12-05T16:53:53.835Z,91.16
2022-12-05T16:56:23.527Z,91.11
2022-12-05T16:58:51.399Z,91.01
2022-12-05T17:01:27.620Z,91.03
2022-12-05T17:03:55.573Z,91.25
2022-12-05T17:06:26.632Z,91.32
2022-12-05T17:08:54.542Z,91.51
2022-12-05T17:11:25.155Z,91.16
2022-12-05T17:13:55.304Z,91.38
2022-12-05T17:16:21.996Z,91.39
2022-12-05T17:18:49.251Z,91.29
2022-12-05T17:21:21.206Z,91.16
2022-12-05T17:23:48.533Z,91.59
2022-12-05T17:26:17.503Z,91.33
2022-12-05T17:28:44.383Z,91.47
2022-12-05T17:31:20.105Z,91.18
2022-12-05T17:33:48.351Z,91.59
2022-12-05T17:36:15.788Z,91.42
2022-12-05T17:38:43.436Z,91.48
2022-12-05T17:41:16.074Z,91.54
2022-12-05T17:43:43.239Z,91.58
2022-12-05T17:46:09.924Z,91.33
2022-12-05T17:48:36.703Z,91.35
2022-12-05T17:51:06.602Z,91.60
2022-12-05T17:53:33.335Z,91.59
2022-12-05T17:56:00.017Z,91.63
2022-12-05T17:58:26.753Z,91.42
2022-12-05T18:00:53.587Z,91.56
2022-12-05T18:03:20.447Z,91.48
2022-12-05T18:05:47.703Z,91.78
2022-12-05T18:08:16.630Z,91.49
2022-12-05T18:10:44.880Z,91.42
2022-12-05T18:13:12.063Z,91.69
2022-12-05T18:15:42.930Z,91.30
2022-12-05T18:18:14.466Z,91.55
2022-12-05T18:20:41.136Z,91.49
2022-12-05T18:23:07.806Z,91.63
2022-12-05T18:25:34.541Z,91.63
2022-12-05T18:28:02.268Z,91.67
2022-12-05T18:30:30.402Z,91.60
2022-12-05T18:32:57.102Z,91.58
2022-12-05T18:35:40.857Z,91.75
2022-12-05T18:38:08.935Z,91.70
2022-12-05T18:40:35.678Z,91.53
2022-12-05T18:43:02.543Z,91.53
2022-12-05T18:45:29.280Z,91.51
2022-12-05T18:48:04.515Z,92.01
2022-12-05T18:50:42.855Z,91.92
2022-12-05T18:53:09.551Z,91.90
2022-12-05T18:56:05.151Z,91.62
2022-12-05T18:58:24.061Z,91.99
2022-12-05T19:00:50.733Z,91.78
2022-12-05T19:03:17.463Z,92.07
2022-12-05T19:05:44.132Z,91.83
2022-12-05T19:08:10.937Z,91.69
2022-12-05T19:10:37.802Z,91.87
2022-12-05T19:13:04.472Z,91.63
2022-12-05T19:15:31.346Z,91.62
2022-12-05T19:17:58.101Z,91.84
2022-12-05T19:20:24.767Z,91.79
2022-12-05T19:22:54.128Z,91.60
2022-12-05T19:25:23.097Z,91.91
2022-12-05T19:27:50.079Z,92.06
2022-12-05T19:30:16.885Z,92.01
2022-12-05T19:32:43.605Z,91.82
2022-12-05T19:35:10.741Z,91.89
2022-12-05T19:37:37.445Z,91.82
2022-12-05T19:40:06.656Z,91.93
2022-12-05T19:42:33.355Z,91.91
2022-12-05T19:45:04.620Z,91.67
2022-12-05T19:47:34.764Z,91.94
2022-12-05T19:50:01.632Z,91.67
2022-12-05T19:52:28.504Z,91.98
2022-12-05T19:54:55.195Z,92.28
2022-12-05T19:57:22.732Z,92.14
2022-12-05T19:59:49.516Z,92.10
2022-12-05T20:02:16.431Z,92.09
2022-12-05T20:04:43.355Z,91.65
2022-12-05T20:07:10.031Z,91.92
2022-12-05T20:09:37.678Z,92.14
2022-12-05T20:12:04.754Z,91.65
2022-12-05T20:14:31.562Z,91.98
2022-12-05T20:16:58.328Z,92.10
2022-12-05T20:19:25.129Z,91.98
2022-12-05T20:21:51.941Z,91.83
2022-12-05T20:24:18.675Z,91.94
2022-12-05T20:26:45.435Z,91.85
2022-12-05T20:29:12.268Z,91.59
2022-12-05T20:31:40.773Z,91.76
2022-12-05T20:34:11.515Z,91.65
2022-12-05T20:36:38.297Z,91.93
2022-12-05T20:39:07.585Z,91.65
2022-12-05T20:41:34.443Z,91.98
2022-12-05T20:44:04.990Z,91.82
2022-12-05T20:46:37.626Z,91.65
2022-12-05T20:49:10.060Z,91.68
2022-12-05T20:51:45.077Z,92.00
2022-12-05T20:55:04.147Z,91.79
2022-12-05T20:57:50.745Z,91.97
2022-12-05T21:01:03.355Z,91.90
2022-12-05T21:03:51.620Z,92.25
2022-12-05T21:10:45.912Z,91.94
2022-12-05T21:13:56.615Z,92.08
2022-12-05T21:21:11.583Z,92.39
2022-12-05T21:28:16.177Z,92.29
2022-12-05T21:31:34.585Z,92.28
2022-12-05T21:34:41.661Z,92.48
2022-12-05T21:38:00.407Z,92.50
2022-12-05T21:44:04.960Z,92.53
2022-12-05T21:46:54.818Z,92.62
2022-12-05T21:49:48.044Z,92.44
2022-12-05T21:52:20.950Z,92.32
2022-12-05T21:54:54.906Z,92.25
2022-12-05T21:57:50.903Z,92.52
2022-12-05T22:00:37.385Z,92.45
2022-12-05T22:03:25.849Z,92.54
2022-12-05T22:06:43.668Z,92.61
2022-12-05T22:10:16.440Z,92.42
2022-12-05T22:13:32.647Z,92.49
2022-12-05T22:16:47.028Z,92.69
2022-12-05T22:20:14.508Z,92.46
2022-12-05T22:23:15.307Z,92.59
2022-12-05T22:26:37.443Z,92.55
2022-12-05T22:29:35.856Z,92.68
2022-12-05T22:33:05.368Z,92.88
2022-12-05T22:36:07.854Z,92.81
2022-12-05T22:39:16.095Z,92.53
2022-12-05T22:42:19.040Z,92.89
2022-12-05T22:45:12.981Z,92.64
2022-12-05T22:47:49.184Z,92.72
2022-12-05T22:58:53.138Z,92.64
2022-12-05T23:08:40.029Z,93.05
2022-12-05T23:11:35.176Z,93.04
2022-12-05T23:14:20.053Z,92.97
2022-12-05T23:17:42.026Z,93.05
2022-12-05T23:20:39.037Z,93.25
2022-12-05T23:23:48.725Z,93.25
2022-12-05T23:30:25.204Z,93.06
2022-12-05T23:33:51.439Z,93.41
2022-12-05T23:37:16.202Z,93.30
2022-12-05T23:40:51.792Z,93.28
2022-12-05T23:44:12.291Z,93.39
2022-12-05T23:47:10.259Z,93.50
2022-12-05T23:49:44.711Z,93.43
2022-12-05T23:56:08.040Z,93.42
2022-12-05T23:59:51.406Z,93.32
